Chemroad Wing — 3EAB8 — position and weather

sailwx.info

Track history (hours):
 
Tides and Currents Weather Stations Pressure Air Temp Water Temp Dewpoint Dewpoint Depression Visibility Wind Speed Wind Dir Waves Ship Positions

Chemroad Wing

Last reported at 2018-May-23 13:32 UTC. Time now 2018-May-24 08:31 UTC.
Position N 30°57' E 123°09'.

Length 170 m; draft 6.7 m.

Type: Tanker. MMSI: 357740000.

Date/timePositionNaut miles runAvg speedWind from/ knotsBaromVisibWave heightAir tempDewpointWater temp
2018-May-23 13:32N 30°57' E 123°09'115.4
2018-May-23 13:30N 30°57' E 123°08'815.5
2018-May-23 13:00N 30°57' E 122°59'815.7
2018-May-23 12:29N 30°57' E 122°50'815.5
2018-May-23 11:59N 30°58' E 122°40'715.0
2018-May-23 11:30N 30°59' E 122°32'815.0
2018-May-23 11:00N 31°01' E 122°24'814.1
2018-May-23 10:25N 31°03' E 122°14'510.9
2018-May-23 09:59N 31°03' E 122°09'612.0
2018-May-23 09:29N 31°05' E 122°02'5 9.6
2018-May-23 09:00N 31°07' E 121°57'612.0
2018-May-23 08:29N 31°10' E 121°51'613.5
2018-May-23 08:00N 31°15' E 121°46'712.8
2018-May-23 07:27N 31°20' E 121°40'511.3
2018-May-23 07:00N 31°23' E 121°35'611.5
2018-May-23 06:30N 31°26' E 121°30'5 9.7
2018-May-23 06:00N 31°29' E 121°26'510.6
2018-May-23 05:30N 31°32' E 121°21'4 6.4
2018-May-23 04:52N 31°35' E 121°17'0 0.2
2018-May-23 04:22N 31°35' E 121°17'0 0.0
2018-May-22 11:04N 31°35' E 121°17'0 0.0
2018-May-22 11:00N 31°35' E 121°17'1 3.0
2018-May-22 10:31N 31°34' E 121°19'611.3
2018-May-22 10:00N 31°31' E 121°24'611.2
2018-May-22 09:30N 31°27' E 121°29'4 7.0
2018-May-22 08:59N 31°25' E 121°32'8 8.2
2018-May-22 07:59N 31°21' E 121°40'5 9.4
2018-May-22 07:30N 31°17' E 121°44'713.9
2018-May-22 07:01N 31°12' E 121°49'814.0
2018-May-22 06:26N 31°07' E 121°57'410.1
2018-May-22 06:00N 31°05' E 122°01'612.7
2018-May-22 05:30N 31°03' E 122°08'611.6
2018-May-22 05:00N 31°03' E 122°15'5 8.4
2018-May-22 04:28N 31°02' E 122°20'510.9
2018-May-22 04:00N 31°01' E 122°26'  
2018-May-17 14:30N 25°39' E 120°28'814.1
2018-May-17 13:56N 25°32' E 120°23'814.3
2018-May-17 13:23N 25°25' E 120°19'614.5
2018-May-17 12:58N 25°20' E 120°15'714.9
2018-May-17 12:28N 25°14' E 120°11'715.5
2018-May-17 12:00N 25°08' E 120°07'815.8
2018-May-17 11:31N 25°01' E 120°02'815.8
2018-May-17 11:00N 24°54' E 119°58'815.9
2018-May-17 10:30N 24°47' E 119°54'816.0
2018-May-17 10:00N 24°40' E 119°49'815.5
2018-May-17 09:31N 24°34' E 119°45'815.1
2018-May-17 08:59N 24°27' E 119°41'714.7
2018-May-17 08:29N 24°20' E 119°37'714.2
2018-May-17 08:00N 24°15' E 119°33'814.3
2018-May-17 07:26N 24°08' E 119°27'714.2
2018-May-17 06:56N 24°04' E 119°21'614.2
2018-May-17 06:30N 24°00' E 119°16'714.2
2018-May-17 05:59N 23°56' E 119°09'814.4
2018-May-17 05:26N 23°51' E 119°02'714.3
2018-May-17 04:57N 23°47' E 118°56'614.5
2018-May-17 04:30N 23°43' E 118°50'714.6
2018-May-17 04:00N 23°39' E 118°44'914.6
2018-May-17 03:23N 23°35' E 118°35'614.9
2018-May-17 03:00N 23°32' E 118°30'1015.2
2018-May-17 02:21N 23°26' E 118°21'715.5
2018-May-17 01:53N 23°22' E 118°15'715.6
2018-May-17 01:26N 23°18' E 118°08'1215.6
2018-May-17 00:38N 23°11' E 117°57'815.2
2018-May-17 00:07N 23°06' E 117°50'  
Track history (hours):
 
Tides and Currents Weather Stations Pressure Air Temp Water Temp Dewpoint Dewpoint Depression Visibility Wind Speed Wind Dir Waves Ship Positions

Chemroad Wing

Last reported at 2018-May-23 13:32 UTC. Time now 2018-May-24 08:31 UTC.
Position N 30°57' E 123°09'.

Length 170 m; draft 6.7 m.

Type: Tanker. MMSI: 357740000.

Date/timePositionNaut miles runAvg speedWind from/ knotsBaromVisibWave heightAir tempDewpointWater temp
2018-May-23 13:32N 30°57' E 123°09'115.4
2018-May-23 13:30N 30°57' E 123°08'815.5
2018-May-23 13:00N 30°57' E 122°59'815.7
2018-May-23 12:29N 30°57' E 122°50'815.5
2018-May-23 11:59N 30°58' E 122°40'715.0
2018-May-23 11:30N 30°59' E 122°32'815.0
2018-May-23 11:00N 31°01' E 122°24'814.1
2018-May-23 10:25N 31°03' E 122°14'510.9
2018-May-23 09:59N 31°03' E 122°09'612.0
2018-May-23 09:29N 31°05' E 122°02'5 9.6
2018-May-23 09:00N 31°07' E 121°57'612.0
2018-May-23 08:29N 31°10' E 121°51'613.5
2018-May-23 08:00N 31°15' E 121°46'712.8
2018-May-23 07:27N 31°20' E 121°40'511.3
2018-May-23 07:00N 31°23' E 121°35'611.5
2018-May-23 06:30N 31°26' E 121°30'5 9.7
2018-May-23 06:00N 31°29' E 121°26'510.6
2018-May-23 05:30N 31°32' E 121°21'4 6.4
2018-May-23 04:52N 31°35' E 121°17'0 0.2
2018-May-23 04:22N 31°35' E 121°17'0 0.0
2018-May-22 11:04N 31°35' E 121°17'0 0.0
2018-May-22 11:00N 31°35' E 121°17'1 3.0
2018-May-22 10:31N 31°34' E 121°19'611.3
2018-May-22 10:00N 31°31' E 121°24'611.2
2018-May-22 09:30N 31°27' E 121°29'4 7.0
2018-May-22 08:59N 31°25' E 121°32'8 8.2
2018-May-22 07:59N 31°21' E 121°40'5 9.4
2018-May-22 07:30N 31°17' E 121°44'713.9
2018-May-22 07:01N 31°12' E 121°49'814.0
2018-May-22 06:26N 31°07' E 121°57'410.1
2018-May-22 06:00N 31°05' E 122°01'612.7
2018-May-22 05:30N 31°03' E 122°08'611.6
2018-May-22 05:00N 31°03' E 122°15'5 8.4
2018-May-22 04:28N 31°02' E 122°20'510.9
2018-May-22 04:00N 31°01' E 122°26'  
2018-May-17 14:30N 25°39' E 120°28'814.1
2018-May-17 13:56N 25°32' E 120°23'814.3
2018-May-17 13:23N 25°25' E 120°19'614.5
2018-May-17 12:58N 25°20' E 120°15'714.9
2018-May-17 12:28N 25°14' E 120°11'715.5
2018-May-17 12:00N 25°08' E 120°07'815.8
2018-May-17 11:31N 25°01' E 120°02'815.8
2018-May-17 11:00N 24°54' E 119°58'815.9
2018-May-17 10:30N 24°47' E 119°54'816.0
2018-May-17 10:00N 24°40' E 119°49'815.5
2018-May-17 09:31N 24°34' E 119°45'815.1
2018-May-17 08:59N 24°27' E 119°41'714.7
2018-May-17 08:29N 24°20' E 119°37'714.2
2018-May-17 08:00N 24°15' E 119°33'814.3
2018-May-17 07:26N 24°08' E 119°27'714.2
2018-May-17 06:56N 24°04' E 119°21'614.2
2018-May-17 06:30N 24°00' E 119°16'714.2
2018-May-17 05:59N 23°56' E 119°09'814.4
2018-May-17 05:26N 23°51' E 119°02'714.3
2018-May-17 04:57N 23°47' E 118°56'614.5
2018-May-17 04:30N 23°43' E 118°50'714.6
2018-May-17 04:00N 23°39' E 118°44'914.6
2018-May-17 03:23N 23°35' E 118°35'614.9
2018-May-17 03:00N 23°32' E 118°30'1015.2
2018-May-17 02:21N 23°26' E 118°21'715.5
2018-May-17 01:53N 23°22' E 118°15'715.6
2018-May-17 01:26N 23°18' E 118°08'1215.6
2018-May-17 00:38N 23°11' E 117°57'815.2
2018-May-17 00:07N 23°06' E 117°50'  

Dump ship's entire track history